sensor_id;sensor_type;location;lat;lon;timestamp;P1;durP1;ratioP1;P2;durP2;ratioP2
36659;SDS011;22654;51.054;3.654;2022-11-28T00:02:12;10.32;;;7.00;;
36659;SDS011;22654;51.054;3.654;2022-11-28T00:04:37;8.27;;;6.45;;
36659;SDS011;22654;51.054;3.654;2022-11-28T00:07:03;9.23;;;6.82;;
36659;SDS011;22654;51.054;3.654;2022-11-28T00:09:29;10.52;;;7.25;;
36659;SDS011;22654;51.054;3.654;2022-11-28T00:11:55;8.88;;;7.15;;
36659;SDS011;22654;51.054;3.654;2022-11-28T00:14:21;8.52;;;6.57;;
36659;SDS011;22654;51.054;3.654;2022-11-28T00:16:47;11.95;;;6.72;;
36659;SDS011;22654;51.054;3.654;2022-11-28T00:19:13;12.05;;;6.93;;
36659;SDS011;22654;51.054;3.654;2022-11-28T00:21:39;14.40;;;7.20;;
36659;SDS011;22654;51.054;3.654;2022-11-28T00:24:05;10.32;;;7.05;;
36659;SDS011;22654;51.054;3.654;2022-11-28T00:26:36;11.40;;;7.72;;
36659;SDS011;22654;51.054;3.654;2022-11-28T00:29:04;8.48;;;6.35;;
36659;SDS011;22654;51.054;3.654;2022-11-28T00:31:33;12.00;;;7.15;;
36659;SDS011;22654;51.054;3.654;2022-11-28T00:34:06;9.25;;;7.15;;
36659;SDS011;22654;51.054;3.654;2022-11-28T00:36:33;11.32;;;7.25;;
36659;SDS011;22654;51.054;3.654;2022-11-28T00:38:59;19.27;;;8.65;;
36659;SDS011;22654;51.054;3.654;2022-11-28T00:41:26;9.93;;;6.95;;
36659;SDS011;22654;51.054;3.654;2022-11-28T00:43:53;10.32;;;8.25;;
36659;SDS011;22654;51.054;3.654;2022-11-28T00:46:20;10.35;;;7.68;;
36659;SDS011;22654;51.054;3.654;2022-11-28T00:48:47;11.05;;;7.97;;
36659;SDS011;22654;51.054;3.654;2022-11-28T00:51:15;9.23;;;7.32;;
36659;SDS011;22654;51.054;3.654;2022-11-28T00:53:44;10.55;;;7.70;;
36659;SDS011;22654;51.054;3.654;2022-11-28T00:56:12;13.80;;;8.63;;
36659;SDS011;22654;51.054;3.654;2022-11-28T00:58:40;11.13;;;7.95;;
36659;SDS011;22654;51.054;3.654;2022-11-28T01:01:16;12.43;;;8.07;;
36659;SDS011;22654;51.054;3.654;2022-11-28T01:03:45;13.27;;;8.15;;
36659;SDS011;22654;51.054;3.654;2022-11-28T01:06:12;10.25;;;8.27;;
36659;SDS011;22654;51.054;3.654;2022-11-28T01:08:44;15.80;;;8.55;;
36659;SDS011;22654;51.054;3.654;2022-11-28T01:11:11;9.65;;;7.47;;
36659;SDS011;22654;51.054;3.654;2022-11-28T01:13:37;13.23;;;8.65;;
36659;SDS011;22654;51.054;3.654;2022-11-28T01:16:04;10.60;;;8.30;;
36659;SDS011;22654;51.054;3.654;2022-11-28T01:18:30;12.38;;;8.00;;
36659;SDS011;22654;51.054;3.654;2022-11-28T01:20:56;11.82;;;8.75;;
36659;SDS011;22654;51.054;3.654;2022-11-28T01:23:22;11.05;;;8.25;;
36659;SDS011;22654;51.054;3.654;2022-11-28T01:25:47;9.63;;;8.48;;
36659;SDS011;22654;51.054;3.654;2022-11-28T01:28:13;13.57;;;9.35;;
36659;SDS011;22654;51.054;3.654;2022-11-28T01:30:39;10.05;;;9.02;;
36659;SDS011;22654;51.054;3.654;2022-11-28T01:33:05;13.25;;;9.23;;
36659;SDS011;22654;51.054;3.654;2022-11-28T01:35:31;11.70;;;9.25;;
36659;SDS011;22654;51.054;3.654;2022-11-28T01:37:56;14.15;;;9.40;;
36659;SDS011;22654;51.054;3.654;2022-11-28T01:40:22;10.73;;;9.45;;
36659;SDS011;22654;51.054;3.654;2022-11-28T01:42:48;11.43;;;10.10;;
36659;SDS011;22654;51.054;3.654;2022-11-28T01:45:21;12.40;;;9.75;;
36659;SDS011;22654;51.054;3.654;2022-11-28T01:47:49;11.98;;;9.23;;
36659;SDS011;22654;51.054;3.654;2022-11-28T01:50:17;11.57;;;9.65;;
36659;SDS011;22654;51.054;3.654;2022-11-28T01:52:45;11.52;;;9.30;;
36659;SDS011;22654;51.054;3.654;2022-11-28T01:55:17;11.35;;;9.68;;
36659;SDS011;22654;51.054;3.654;2022-11-28T01:57:47;15.50;;;10.68;;
36659;SDS011;22654;51.054;3.654;2022-11-28T02:00:15;13.20;;;10.55;;
36659;SDS011;22654;51.054;3.654;2022-11-28T02:05:19;13.95;;;9.93;;
36659;SDS011;22654;51.054;3.654;2022-11-28T02:07:46;16.55;;;11.48;;
36659;SDS011;22654;51.054;3.654;2022-11-28T02:10:14;12.43;;;11.02;;
36659;SDS011;22654;51.054;3.654;2022-11-28T02:26:39;14.95;;;11.15;;
36659;SDS011;22654;51.054;3.654;2022-11-28T02:40:50;12.63;;;11.32;;
36659;SDS011;22654;51.054;3.654;2022-11-28T02:51:28;16.15;;;11.90;;
36659;SDS011;22654;51.054;3.654;2022-11-28T02:53:59;14.48;;;12.95;;
36659;SDS011;22654;51.054;3.654;2022-11-28T02:56:27;20.23;;;13.55;;
36659;SDS011;22654;51.054;3.654;2022-11-28T02:58:53;15.77;;;14.05;;
36659;SDS011;22654;51.054;3.654;2022-11-28T03:01:23;14.75;;;13.25;;
36659;SDS011;22654;51.054;3.654;2022-11-28T03:11:50;15.30;;;13.80;;
36659;SDS011;22654;51.054;3.654;2022-11-28T03:17:20;16.85;;;14.25;;
36659;SDS011;22654;51.054;3.654;2022-11-28T03:20:09;19.88;;;15.18;;
36659;SDS011;22654;51.054;3.654;2022-11-28T03:28:15;18.83;;;16.17;;
36659;SDS011;22654;51.054;3.654;2022-11-28T03:30:51;18.92;;;15.63;;
36659;SDS011;22654;51.054;3.654;2022-11-28T03:33:31;17.20;;;15.38;;
36659;SDS011;22654;51.054;3.654;2022-11-28T03:36:09;20.05;;;16.45;;
36659;SDS011;22654;51.054;3.654;2022-11-28T03:38:44;24.13;;;18.63;;
36659;SDS011;22654;51.054;3.654;2022-11-28T03:41:22;24.98;;;18.05;;
36659;SDS011;22654;51.054;3.654;2022-11-28T03:43:53;24.35;;;18.17;;
36659;SDS011;22654;51.054;3.654;2022-11-28T03:46:22;26.33;;;19.70;;
36659;SDS011;22654;51.054;3.654;2022-11-28T03:48:53;23.75;;;18.50;;
36659;SDS011;22654;51.054;3.654;2022-11-28T03:51:34;31.20;;;20.60;;
36659;SDS011;22654;51.054;3.654;2022-11-28T03:54:07;28.90;;;20.08;;
36659;SDS011;22654;51.054;3.654;2022-11-28T03:59:39;31.67;;;21.58;;
36659;SDS011;22654;51.054;3.654;2022-11-28T04:10:01;32.33;;;22.92;;
36659;SDS011;22654;51.054;3.654;2022-11-28T04:12:51;38.63;;;24.05;;
36659;SDS011;22654;51.054;3.654;2022-11-28T04:26:00;37.03;;;24.20;;
36659;SDS011;22654;51.054;3.654;2022-11-28T04:28:33;39.10;;;26.17;;
36659;SDS011;22654;51.054;3.654;2022-11-28T04:31:01;36.25;;;26.85;;
36659;SDS011;22654;51.054;3.654;2022-11-28T04:33:30;39.30;;;25.67;;
36659;SDS011;22654;51.054;3.654;2022-11-28T04:35:59;41.33;;;27.50;;
36659;SDS011;22654;51.054;3.654;2022-11-28T04:38:27;40.97;;;28.90;;
36659;SDS011;22654;51.054;3.654;2022-11-28T04:43:29;45.85;;;30.48;;
36659;SDS011;22654;51.054;3.654;2022-11-28T04:46:00;44.80;;;30.65;;
36659;SDS011;22654;51.054;3.654;2022-11-28T04:48:31;46.25;;;30.77;;
36659;SDS011;22654;51.054;3.654;2022-11-28T04:56:29;44.60;;;30.17;;
36659;SDS011;22654;51.054;3.654;2022-11-28T04:59:08;43.20;;;29.67;;
36659;SDS011;22654;51.054;3.654;2022-11-28T05:01:36;44.33;;;30.15;;
36659;SDS011;22654;51.054;3.654;2022-11-28T05:04:05;40.85;;;29.63;;
36659;SDS011;22654;51.054;3.654;2022-11-28T05:06:32;42.05;;;31.58;;
36659;SDS011;22654;51.054;3.654;2022-11-28T05:09:00;44.97;;;31.45;;
36659;SDS011;22654;51.054;3.654;2022-11-28T05:11:25;46.70;;;32.10;;
36659;SDS011;22654;51.054;3.654;2022-11-28T05:13:52;47.53;;;32.33;;
36659;SDS011;22654;51.054;3.654;2022-11-28T05:16:21;42.60;;;30.23;;
36659;SDS011;22654;51.054;3.654;2022-11-28T05:18:47;49.10;;;33.45;;
36659;SDS011;22654;51.054;3.654;2022-11-28T05:21:13;46.97;;;31.67;;
36659;SDS011;22654;51.054;3.654;2022-11-28T05:23:42;52.33;;;34.03;;
36659;SDS011;22654;51.054;3.654;2022-11-28T05:26:10;48.63;;;32.15;;
36659;SDS011;22654;51.054;3.654;2022-11-28T05:28:38;46.00;;;33.70;;
36659;SDS011;22654;51.054;3.654;2022-11-28T05:31:05;48.85;;;32.58;;
36659;SDS011;22654;51.054;3.654;2022-11-28T05:33:36;45.92;;;31.73;;
36659;SDS011;22654;51.054;3.654;2022-11-28T05:36:03;46.55;;;32.72;;
36659;SDS011;22654;51.054;3.654;2022-11-28T05:38:31;47.00;;;32.55;;
36659;SDS011;22654;51.054;3.654;2022-11-28T05:40:57;45.08;;;32.33;;
36659;SDS011;22654;51.054;3.654;2022-11-28T05:43:24;44.70;;;31.70;;
36659;SDS011;22654;51.054;3.654;2022-11-28T05:45:50;49.17;;;31.40;;
36659;SDS011;22654;51.054;3.654;2022-11-28T05:48:16;46.78;;;31.23;;
36659;SDS011;22654;51.054;3.654;2022-11-28T05:50:42;47.78;;;33.75;;
36659;SDS011;22654;51.054;3.654;2022-11-28T05:53:08;43.88;;;30.10;;
36659;SDS011;22654;51.054;3.654;2022-11-28T05:55:36;40.90;;;29.70;;
36659;SDS011;22654;51.054;3.654;2022-11-28T05:58:02;44.58;;;31.27;;
36659;SDS011;22654;51.054;3.654;2022-11-28T06:00:31;42.10;;;31.58;;
36659;SDS011;22654;51.054;3.654;2022-11-28T06:03:00;38.83;;;29.73;;
36659;SDS011;22654;51.054;3.654;2022-11-28T06:05:28;45.97;;;31.17;;
36659;SDS011;22654;51.054;3.654;2022-11-28T06:07:53;43.50;;;31.30;;
36659;SDS011;22654;51.054;3.654;2022-11-28T06:10:19;40.72;;;30.23;;
36659;SDS011;22654;51.054;3.654;2022-11-28T06:12:46;41.97;;;30.25;;
36659;SDS011;22654;51.054;3.654;2022-11-28T06:15:13;39.63;;;30.23;;
36659;SDS011;22654;51.054;3.654;2022-11-28T06:17:38;36.67;;;29.30;;
36659;SDS011;22654;51.054;3.654;2022-11-28T06:20:04;40.38;;;29.25;;
36659;SDS011;22654;51.054;3.654;2022-11-28T06:22:32;39.85;;;30.00;;
36659;SDS011;22654;51.054;3.654;2022-11-28T06:24:58;39.03;;;27.55;;
36659;SDS011;22654;51.054;3.654;2022-11-28T06:27:24;41.70;;;29.13;;
36659;SDS011;22654;51.054;3.654;2022-11-28T06:29:50;42.75;;;29.33;;
36659;SDS011;22654;51.054;3.654;2022-11-28T06:32:16;37.53;;;27.42;;
36659;SDS011;22654;51.054;3.654;2022-11-28T06:34:41;44.00;;;27.98;;
36659;SDS011;22654;51.054;3.654;2022-11-28T06:37:07;39.35;;;27.27;;
36659;SDS011;22654;51.054;3.654;2022-11-28T06:39:33;38.22;;;26.45;;
36659;SDS011;22654;51.054;3.654;2022-11-28T06:41:59;42.08;;;28.27;;
36659;SDS011;22654;51.054;3.654;2022-11-28T06:44:24;40.03;;;27.65;;
36659;SDS011;22654;51.054;3.654;2022-11-28T06:46:50;41.05;;;27.77;;
36659;SDS011;22654;51.054;3.654;2022-11-28T06:49:16;42.28;;;27.60;;
36659;SDS011;22654;51.054;3.654;2022-11-28T06:51:42;42.97;;;28.13;;
36659;SDS011;22654;51.054;3.654;2022-11-28T06:54:10;35.28;;;24.80;;
36659;SDS011;22654;51.054;3.654;2022-11-28T06:56:36;44.75;;;29.17;;
36659;SDS011;22654;51.054;3.654;2022-11-28T06:59:02;41.65;;;30.55;;
36659;SDS011;22654;51.054;3.654;2022-11-28T07:01:28;46.28;;;31.00;;
36659;SDS011;22654;51.054;3.654;2022-11-28T07:03:55;47.83;;;32.58;;
36659;SDS011;22654;51.054;3.654;2022-11-28T07:06:22;49.42;;;31.00;;
36659;SDS011;22654;51.054;3.654;2022-11-28T07:08:49;44.15;;;30.90;;
36659;SDS011;22654;51.054;3.654;2022-11-28T07:11:19;48.83;;;31.23;;
36659;SDS011;22654;51.054;3.654;2022-11-28T07:13:47;49.03;;;32.83;;
36659;SDS011;22654;51.054;3.654;2022-11-28T07:16:17;53.03;;;33.10;;
36659;SDS011;22654;51.054;3.654;2022-11-28T07:21:11;49.28;;;31.05;;
36659;SDS011;22654;51.054;3.654;2022-11-28T07:23:39;49.78;;;32.63;;
36659;SDS011;22654;51.054;3.654;2022-11-28T07:26:05;51.92;;;32.33;;
36659;SDS011;22654;51.054;3.654;2022-11-28T07:28:32;53.22;;;33.63;;
36659;SDS011;22654;51.054;3.654;2022-11-28T07:33:24;45.92;;;30.85;;
36659;SDS011;22654;51.054;3.654;2022-11-28T07:35:50;45.45;;;30.27;;
36659;SDS011;22654;51.054;3.654;2022-11-28T07:38:16;46.30;;;32.00;;
36659;SDS011;22654;51.054;3.654;2022-11-28T07:40:42;47.72;;;33.03;;
36659;SDS011;22654;51.054;3.654;2022-11-28T07:43:07;50.35;;;31.08;;
36659;SDS011;22654;51.054;3.654;2022-11-28T07:45:37;45.97;;;30.60;;
36659;SDS011;22654;51.054;3.654;2022-11-28T07:48:03;42.25;;;30.13;;
36659;SDS011;22654;51.054;3.654;2022-11-28T07:50:29;43.95;;;29.90;;
36659;SDS011;22654;51.054;3.654;2022-11-28T07:52:55;42.72;;;29.48;;
36659;SDS011;22654;51.054;3.654;2022-11-28T07:55:22;43.30;;;29.52;;
36659;SDS011;22654;51.054;3.654;2022-11-28T07:57:47;42.55;;;29.42;;
36659;SDS011;22654;51.054;3.654;2022-11-28T08:00:13;36.85;;;27.58;;
36659;SDS011;22654;51.054;3.654;2022-11-28T08:02:40;40.20;;;28.88;;
36659;SDS011;22654;51.054;3.654;2022-11-28T08:05:06;40.00;;;27.92;;
36659;SDS011;22654;51.054;3.654;2022-11-28T08:07:32;36.45;;;26.67;;
36659;SDS011;22654;51.054;3.654;2022-11-28T08:09:58;39.15;;;27.48;;
36659;SDS011;22654;51.054;3.654;2022-11-28T08:12:24;37.55;;;26.35;;
36659;SDS011;22654;51.054;3.654;2022-11-28T08:14:49;38.60;;;25.85;;
36659;SDS011;22654;51.054;3.654;2022-11-28T08:17:15;39.47;;;25.35;;
36659;SDS011;22654;51.054;3.654;2022-11-28T08:19:41;33.92;;;25.30;;
36659;SDS011;22654;51.054;3.654;2022-11-28T08:22:07;34.00;;;24.42;;
36659;SDS011;22654;51.054;3.654;2022-11-28T08:24:32;29.55;;;22.35;;
36659;SDS011;22654;51.054;3.654;2022-11-28T08:26:58;33.05;;;23.20;;
36659;SDS011;22654;51.054;3.654;2022-11-28T08:29:24;31.02;;;21.70;;
36659;SDS011;22654;51.054;3.654;2022-11-28T08:31:50;31.58;;;22.40;;
36659;SDS011;22654;51.054;3.654;2022-11-28T08:34:16;28.92;;;21.27;;
36659;SDS011;22654;51.054;3.654;2022-11-28T08:36:41;31.77;;;21.60;;
36659;SDS011;22654;51.054;3.654;2022-11-28T08:39:07;29.83;;;20.67;;
36659;SDS011;22654;51.054;3.654;2022-11-28T08:41:35;28.40;;;22.45;;
36659;SDS011;22654;51.054;3.654;2022-11-28T08:44:01;26.27;;;20.20;;
36659;SDS011;22654;51.054;3.654;2022-11-28T08:46:27;29.48;;;21.77;;
36659;SDS011;22654;51.054;3.654;2022-11-28T08:48:53;26.27;;;19.92;;
36659;SDS011;22654;51.054;3.654;2022-11-28T08:51:19;22.20;;;18.95;;
36659;SDS011;22654;51.054;3.654;2022-11-28T08:53:48;25.48;;;20.80;;
36659;SDS011;22654;51.054;3.654;2022-11-28T08:56:14;27.75;;;19.15;;
36659;SDS011;22654;51.054;3.654;2022-11-28T08:58:40;26.10;;;19.33;;
36659;SDS011;22654;51.054;3.654;2022-11-28T09:01:19;29.27;;;20.60;;
36659;SDS011;22654;51.054;3.654;2022-11-28T09:03:47;25.30;;;19.90;;
36659;SDS011;22654;51.054;3.654;2022-11-28T09:06:13;29.48;;;21.55;;
36659;SDS011;22654;51.054;3.654;2022-11-28T09:08:40;24.60;;;18.98;;
36659;SDS011;22654;51.054;3.654;2022-11-28T09:11:07;25.65;;;20.77;;
36659;SDS011;22654;51.054;3.654;2022-11-28T09:13:34;25.13;;;21.05;;
36659;SDS011;22654;51.054;3.654;2022-11-28T09:16:01;29.15;;;22.52;;
36659;SDS011;22654;51.054;3.654;2022-11-28T09:18:28;30.45;;;21.80;;
36659;SDS011;22654;51.054;3.654;2022-11-28T09:21:01;27.60;;;21.40;;
36659;SDS011;22654;51.054;3.654;2022-11-28T09:23:29;26.90;;;22.90;;
36659;SDS011;22654;51.054;3.654;2022-11-28T09:25:55;32.42;;;22.80;;
36659;SDS011;22654;51.054;3.654;2022-11-28T09:28:22;26.48;;;21.58;;
36659;SDS011;22654;51.054;3.654;2022-11-28T09:30:48;22.98;;;19.88;;
36659;SDS011;22654;51.054;3.654;2022-11-28T09:33:14;26.63;;;22.20;;
36659;SDS011;22654;51.054;3.654;2022-11-28T09:35:40;22.88;;;19.42;;
36659;SDS011;22654;51.054;3.654;2022-11-28T09:38:06;25.90;;;22.17;;
36659;SDS011;22654;51.054;3.654;2022-11-28T09:40:36;30.67;;;21.55;;
36659;SDS011;22654;51.054;3.654;2022-11-28T09:43:07;23.85;;;19.52;;
36659;SDS011;22654;51.054;3.654;2022-11-28T09:45:55;28.27;;;20.70;;
36659;SDS011;22654;51.054;3.654;2022-11-28T09:51:18;27.60;;;20.02;;
36659;SDS011;22654;51.054;3.654;2022-11-28T09:53:49;23.13;;;19.60;;
36659;SDS011;22654;51.054;3.654;2022-11-28T09:56:42;27.67;;;20.30;;
36659;SDS011;22654;51.054;3.654;2022-11-28T09:59:14;24.08;;;19.30;;
36659;SDS011;22654;51.054;3.654;2022-11-28T10:01:55;22.00;;;19.33;;
36659;SDS011;22654;51.054;3.654;2022-11-28T10:20:44;24.48;;;21.50;;
36659;SDS011;22654;51.054;3.654;2022-11-28T10:25:55;26.13;;;21.40;;
36659;SDS011;22654;51.054;3.654;2022-11-28T10:28:25;24.25;;;21.45;;
36659;SDS011;22654;51.054;3.654;2022-11-28T10:31:23;27.33;;;22.50;;
36659;SDS011;22654;51.054;3.654;2022-11-28T10:34:17;30.83;;;23.17;;
36659;SDS011;22654;51.054;3.654;2022-11-28T10:39:42;27.00;;;21.83;;
36659;SDS011;22654;51.054;3.654;2022-11-28T10:44:49;29.08;;;22.65;;
36659;SDS011;22654;51.054;3.654;2022-11-28T11:01:17;29.40;;;20.48;;
36659;SDS011;22654;51.054;3.654;2022-11-28T11:03:43;25.42;;;21.92;;
36659;SDS011;22654;51.054;3.654;2022-11-28T11:06:09;29.33;;;20.92;;
36659;SDS011;22654;51.054;3.654;2022-11-28T11:08:35;31.42;;;22.48;;
36659;SDS011;22654;51.054;3.654;2022-11-28T11:11:09;28.73;;;22.23;;
36659;SDS011;22654;51.054;3.654;2022-11-28T11:19:32;28.27;;;22.55;;
36659;SDS011;22654;51.054;3.654;2022-11-28T11:27:36;32.97;;;23.35;;
36659;SDS011;22654;51.054;3.654;2022-11-28T11:30:24;33.50;;;23.60;;
36659;SDS011;22654;51.054;3.654;2022-11-28T11:32:52;28.40;;;22.15;;
36659;SDS011;22654;51.054;3.654;2022-11-28T11:36:02;35.92;;;22.30;;
36659;SDS011;22654;51.054;3.654;2022-11-28T11:40:47;26.42;;;21.73;;
36659;SDS011;22654;51.054;3.654;2022-11-28T11:43:30;32.40;;;23.70;;
36659;SDS011;22654;51.054;3.654;2022-11-28T11:46:15;36.22;;;22.63;;
36659;SDS011;22654;51.054;3.654;2022-11-28T11:48:59;27.70;;;22.58;;
36659;SDS011;22654;51.054;3.654;2022-11-28T11:51:26;27.13;;;21.33;;
36659;SDS011;22654;51.054;3.654;2022-11-28T11:54:04;34.20;;;23.83;;
36659;SDS011;22654;51.054;3.654;2022-11-28T11:56:42;33.80;;;23.30;;
36659;SDS011;22654;51.054;3.654;2022-11-28T11:59:12;33.22;;;23.58;;
36659;SDS011;22654;51.054;3.654;2022-11-28T12:01:50;33.03;;;23.00;;
36659;SDS011;22654;51.054;3.654;2022-11-28T12:07:05;34.55;;;23.60;;
36659;SDS011;22654;51.054;3.654;2022-11-28T12:09:54;32.47;;;23.52;;
36659;SDS011;22654;51.054;3.654;2022-11-28T12:12:23;38.83;;;24.13;;
36659;SDS011;22654;51.054;3.654;2022-11-28T12:14:53;35.13;;;24.02;;
36659;SDS011;22654;51.054;3.654;2022-11-28T12:20:38;36.53;;;23.95;;
36659;SDS011;22654;51.054;3.654;2022-11-28T12:23:04;32.47;;;23.48;;
36659;SDS011;22654;51.054;3.654;2022-11-28T13:03:27;24.80;;;19.48;;
36659;SDS011;22654;51.054;3.654;2022-11-28T13:06:10;35.22;;;22.00;;
36659;SDS011;22654;51.054;3.654;2022-11-28T13:08:59;36.45;;;22.90;;
36659;SDS011;22654;51.054;3.654;2022-11-28T13:17:21;40.55;;;21.55;;
36659;SDS011;22654;51.054;3.654;2022-11-28T13:23:17;39.65;;;22.58;;
36659;SDS011;22654;51.054;3.654;2022-11-28T13:28:50;37.08;;;22.17;;
36659;SDS011;22654;51.054;3.654;2022-11-28T13:31:23;34.17;;;23.98;;
36659;SDS011;22654;51.054;3.654;2022-11-28T13:33:55;39.80;;;22.85;;
36659;SDS011;22654;51.054;3.654;2022-11-28T13:36:35;35.10;;;21.88;;
36659;SDS011;22654;51.054;3.654;2022-11-28T13:53:01;32.33;;;20.15;;
36659;SDS011;22654;51.054;3.654;2022-11-28T13:55:47;33.72;;;20.13;;
36659;SDS011;22654;51.054;3.654;2022-11-28T14:01:02;31.52;;;18.98;;
36659;SDS011;22654;51.054;3.654;2022-11-28T14:03:31;31.15;;;19.98;;
36659;SDS011;22654;51.054;3.654;2022-11-28T14:06:00;31.50;;;19.33;;
36659;SDS011;22654;51.054;3.654;2022-11-28T14:08:33;33.47;;;19.15;;
36659;SDS011;22654;51.054;3.654;2022-11-28T14:13:40;31.80;;;20.05;;
36659;SDS011;22654;51.054;3.654;2022-11-28T14:29:46;41.67;;;17.52;;
36659;SDS011;22654;51.054;3.654;2022-11-28T14:32:37;26.77;;;17.30;;
36659;SDS011;22654;51.054;3.654;2022-11-28T14:35:13;25.73;;;16.95;;
36659;SDS011;22654;51.054;3.654;2022-11-28T14:38:00;25.20;;;15.82;;
36659;SDS011;22654;51.054;3.654;2022-11-28T14:46:20;32.58;;;17.70;;
36659;SDS011;22654;51.054;3.654;2022-11-28T14:54:29;30.13;;;17.13;;
36659;SDS011;22654;51.054;3.654;2022-11-28T14:57:09;28.08;;;16.70;;
36659;SDS011;22654;51.054;3.654;2022-11-28T14:59:39;36.10;;;17.70;;
36659;SDS011;22654;51.054;3.654;2022-11-28T15:02:15;30.75;;;16.80;;
36659;SDS011;22654;51.054;3.654;2022-11-28T15:04:57;34.97;;;18.67;;
36659;SDS011;22654;51.054;3.654;2022-11-28T15:13:22;28.40;;;17.25;;
36659;SDS011;22654;51.054;3.654;2022-11-28T15:15:51;33.30;;;17.35;;
36659;SDS011;22654;51.054;3.654;2022-11-28T15:18:18;37.15;;;18.55;;
36659;SDS011;22654;51.054;3.654;2022-11-28T15:23:23;38.08;;;19.05;;
36659;SDS011;22654;51.054;3.654;2022-11-28T15:25:53;27.83;;;17.38;;
36659;SDS011;22654;51.054;3.654;2022-11-28T15:28:21;31.58;;;16.35;;
36659;SDS011;22654;51.054;3.654;2022-11-28T15:30:49;27.73;;;16.67;;
36659;SDS011;22654;51.054;3.654;2022-11-28T15:33:16;31.48;;;17.02;;
36659;SDS011;22654;51.054;3.654;2022-11-28T15:36:02;29.67;;;17.85;;
36659;SDS011;22654;51.054;3.654;2022-11-28T15:38:40;33.08;;;17.80;;
36659;SDS011;22654;51.054;3.654;2022-11-28T15:41:07;37.75;;;18.67;;
36659;SDS011;22654;51.054;3.654;2022-11-28T15:43:34;29.58;;;17.27;;
36659;SDS011;22654;51.054;3.654;2022-11-28T15:46:02;35.38;;;19.25;;
36659;SDS011;22654;51.054;3.654;2022-11-28T15:48:34;35.60;;;18.88;;
36659;SDS011;22654;51.054;3.654;2022-11-28T15:51:05;32.65;;;17.92;;
36659;SDS011;22654;51.054;3.654;2022-11-28T15:53:31;34.28;;;18.50;;
36659;SDS011;22654;51.054;3.654;2022-11-28T15:56:13;28.63;;;18.17;;
36659;SDS011;22654;51.054;3.654;2022-11-28T15:58:42;39.50;;;18.92;;
36659;SDS011;22654;51.054;3.654;2022-11-28T16:01:19;34.45;;;17.60;;
36659;SDS011;22654;51.054;3.654;2022-11-28T16:06:21;35.08;;;19.17;;
36659;SDS011;22654;51.054;3.654;2022-11-28T16:08:54;37.70;;;20.20;;
36659;SDS011;22654;51.054;3.654;2022-11-28T16:11:23;33.28;;;20.30;;
36659;SDS011;22654;51.054;3.654;2022-11-28T16:13:52;43.38;;;23.80;;
36659;SDS011;22654;51.054;3.654;2022-11-28T16:16:21;44.60;;;23.42;;
36659;SDS011;22654;51.054;3.654;2022-11-28T16:21:33;41.97;;;22.10;;
36659;SDS011;22654;51.054;3.654;2022-11-28T16:27:06;37.35;;;20.20;;
36659;SDS011;22654;51.054;3.654;2022-11-28T16:30:00;35.30;;;21.65;;
36659;SDS011;22654;51.054;3.654;2022-11-28T16:32:37;34.83;;;22.17;;
36659;SDS011;22654;51.054;3.654;2022-11-28T16:35:05;38.45;;;21.85;;
36659;SDS011;22654;51.054;3.654;2022-11-28T16:37:36;41.55;;;21.73;;
36659;SDS011;22654;51.054;3.654;2022-11-28T16:42:51;36.72;;;20.80;;
36659;SDS011;22654;51.054;3.654;2022-11-28T16:45:19;36.53;;;20.30;;
36659;SDS011;22654;51.054;3.654;2022-11-28T16:50:25;51.20;;;24.20;;
36659;SDS011;22654;51.054;3.654;2022-11-28T16:52:54;49.28;;;24.40;;
36659;SDS011;22654;51.054;3.654;2022-11-28T17:00:23;47.08;;;24.98;;
36659;SDS011;22654;51.054;3.654;2022-11-28T17:02:50;51.03;;;25.50;;
36659;SDS011;22654;51.054;3.654;2022-11-28T17:05:17;58.97;;;27.83;;
36659;SDS011;22654;51.054;3.654;2022-11-28T17:07:43;51.55;;;25.90;;
36659;SDS011;22654;51.054;3.654;2022-11-28T17:10:11;42.97;;;23.42;;
36659;SDS011;22654;51.054;3.654;2022-11-28T17:12:37;50.45;;;27.05;;
36659;SDS011;22654;51.054;3.654;2022-11-28T17:15:05;66.25;;;30.52;;
36659;SDS011;22654;51.054;3.654;2022-11-28T17:17:36;60.78;;;29.73;;
36659;SDS011;22654;51.054;3.654;2022-11-28T17:20:02;56.55;;;30.80;;
36659;SDS011;22654;51.054;3.654;2022-11-28T17:22:31;68.28;;;33.92;;
36659;SDS011;22654;51.054;3.654;2022-11-28T17:25:03;56.55;;;31.45;;
36659;SDS011;22654;51.054;3.654;2022-11-28T17:27:31;67.93;;;34.28;;
36659;SDS011;22654;51.054;3.654;2022-11-28T17:29:57;71.68;;;35.83;;
36659;SDS011;22654;51.054;3.654;2022-11-28T17:32:23;66.18;;;34.75;;
36659;SDS011;22654;51.054;3.654;2022-11-28T17:34:49;73.82;;;35.47;;
36659;SDS011;22654;51.054;3.654;2022-11-28T17:37:15;66.68;;;36.13;;
36659;SDS011;22654;51.054;3.654;2022-11-28T17:39:41;73.07;;;36.20;;
36659;SDS011;22654;51.054;3.654;2022-11-28T17:42:26;70.82;;;37.65;;
36659;SDS011;22654;51.054;3.654;2022-11-28T17:44:52;81.68;;;40.47;;
36659;SDS011;22654;51.054;3.654;2022-11-28T17:47:19;84.03;;;44.05;;
36659;SDS011;22654;51.054;3.654;2022-11-28T17:49:44;77.03;;;47.22;;
36659;SDS011;22654;51.054;3.654;2022-11-28T17:52:10;80.22;;;47.00;;
36659;SDS011;22654;51.054;3.654;2022-11-28T17:54:36;74.40;;;46.28;;
36659;SDS011;22654;51.054;3.654;2022-11-28T17:57:02;64.45;;;40.35;;
36659;SDS011;22654;51.054;3.654;2022-11-28T17:59:28;70.47;;;39.35;;
36659;SDS011;22654;51.054;3.654;2022-11-28T18:01:55;56.40;;;33.13;;
36659;SDS011;22654;51.054;3.654;2022-11-28T18:04:23;68.75;;;34.03;;
36659;SDS011;22654;51.054;3.654;2022-11-28T18:06:49;57.53;;;34.72;;
36659;SDS011;22654;51.054;3.654;2022-11-28T18:09:15;58.53;;;34.38;;
36659;SDS011;22654;51.054;3.654;2022-11-28T18:11:42;63.67;;;35.00;;
36659;SDS011;22654;51.054;3.654;2022-11-28T18:14:11;63.35;;;36.95;;
36659;SDS011;22654;51.054;3.654;2022-11-28T18:16:37;76.15;;;41.78;;
36659;SDS011;22654;51.054;3.654;2022-11-28T18:19:05;77.40;;;40.80;;
36659;SDS011;22654;51.054;3.654;2022-11-28T18:21:31;83.53;;;48.08;;
36659;SDS011;22654;51.054;3.654;2022-11-28T18:23:58;86.55;;;45.55;;
36659;SDS011;22654;51.054;3.654;2022-11-28T18:26:24;64.25;;;40.88;;
36659;SDS011;22654;51.054;3.654;2022-11-28T18:28:51;75.38;;;46.22;;
36659;SDS011;22654;51.054;3.654;2022-11-28T18:31:18;91.57;;;50.40;;
36659;SDS011;22654;51.054;3.654;2022-11-28T18:33:48;78.68;;;47.40;;
36659;SDS011;22654;51.054;3.654;2022-11-28T18:36:25;129.15;;;73.22;;
36659;SDS011;22654;51.054;3.654;2022-11-28T18:38:55;101.88;;;57.90;;
36659;SDS011;22654;51.054;3.654;2022-11-28T18:41:22;90.83;;;48.60;;
36659;SDS011;22654;51.054;3.654;2022-11-28T18:43:48;79.32;;;47.30;;
36659;SDS011;22654;51.054;3.654;2022-11-28T18:46:20;96.60;;;45.65;;
36659;SDS011;22654;51.054;3.654;2022-11-28T18:48:47;80.60;;;46.05;;
36659;SDS011;22654;51.054;3.654;2022-11-28T18:51:13;95.90;;;46.90;;
36659;SDS011;22654;51.054;3.654;2022-11-28T18:53:44;90.45;;;47.55;;
36659;SDS011;22654;51.054;3.654;2022-11-28T18:56:11;90.75;;;49.42;;
36659;SDS011;22654;51.054;3.654;2022-11-28T18:58:39;78.28;;;44.38;;
36659;SDS011;22654;51.054;3.654;2022-11-28T19:01:16;69.60;;;38.85;;
36659;SDS011;22654;51.054;3.654;2022-11-28T19:03:48;74.72;;;38.80;;
36659;SDS011;22654;51.054;3.654;2022-11-28T19:06:16;74.15;;;43.25;;
36659;SDS011;22654;51.054;3.654;2022-11-28T19:08:42;77.28;;;44.83;;